sensor_id;sensor_type;location;lat;lon;timestamp;temperature;humidity
11963;DHT22;62678;52.130;5.584;2023-01-06T00:02:23;11.40;99.90
11963;DHT22;62678;52.130;5.584;2023-01-06T00:04:50;11.50;99.90
11963;DHT22;62678;52.130;5.584;2023-01-06T00:07:17;11.40;99.90
11963;DHT22;62678;52.130;5.584;2023-01-06T00:09:44;11.50;99.90
11963;DHT22;62678;52.130;5.584;2023-01-06T00:12:10;11.60;99.90
11963;DHT22;62678;52.130;5.584;2023-01-06T00:14:37;11.50;99.90
11963;DHT22;62678;52.130;5.584;2023-01-06T00:17:07;11.50;99.90
11963;DHT22;62678;52.130;5.584;2023-01-06T00:19:35;11.50;99.90
11963;DHT22;62678;52.130;5.584;2023-01-06T00:22:02;11.60;99.90
11963;DHT22;62678;52.130;5.584;2023-01-06T00:24:30;11.50;99.90
11963;DHT22;62678;52.130;5.584;2023-01-06T00:26:58;11.50;99.90
11963;DHT22;62678;52.130;5.584;2023-01-06T00:29:25;11.50;99.90
11963;DHT22;62678;52.130;5.584;2023-01-06T00:31:52;11.50;99.90
11963;DHT22;62678;52.130;5.584;2023-01-06T00:34:20;11.40;99.90
11963;DHT22;62678;52.130;5.584;2023-01-06T00:36:48;11.40;99.90
11963;DHT22;62678;52.130;5.584;2023-01-06T00:39:15;11.40;99.90
11963;DHT22;62678;52.130;5.584;2023-01-06T00:41:42;11.30;99.90
11963;DHT22;62678;52.130;5.584;2023-01-06T00:44:26;11.30;99.90
11963;DHT22;62678;52.130;5.584;2023-01-06T00:46:53;11.30;99.90
11963;DHT22;62678;52.130;5.584;2023-01-06T00:49:20;11.30;99.90
11963;DHT22;62678;52.130;5.584;2023-01-06T00:51:49;11.30;99.90
11963;DHT22;62678;52.130;5.584;2023-01-06T00:54:17;11.30;99.90
11963;DHT22;62678;52.130;5.584;2023-01-06T00:56:46;11.30;99.90
11963;DHT22;62678;52.130;5.584;2023-01-06T00:59:15;11.30;99.90
11963;DHT22;62678;52.130;5.584;2023-01-06T01:01:42;11.30;99.90
11963;DHT22;62678;52.130;5.584;2023-01-06T01:04:11;11.40;99.90
11963;DHT22;62678;52.130;5.584;2023-01-06T01:06:38;11.40;99.90
11963;DHT22;62678;52.130;5.584;2023-01-06T01:09:06;11.40;99.90
11963;DHT22;62678;52.130;5.584;2023-01-06T01:11:33;11.40;99.90
11963;DHT22;62678;52.130;5.584;2023-01-06T01:14:18;11.40;99.90
11963;DHT22;62678;52.130;5.584;2023-01-06T01:16:46;11.40;99.90
11963;DHT22;62678;52.130;5.584;2023-01-06T01:19:13;11.40;99.90
11963;DHT22;62678;52.130;5.584;2023-01-06T01:21:40;11.50;99.90
11963;DHT22;62678;52.130;5.584;2023-01-06T01:24:09;11.40;99.90
11963;DHT22;62678;52.130;5.584;2023-01-06T01:26:36;11.40;99.90
11963;DHT22;62678;52.130;5.584;2023-01-06T01:29:03;11.40;99.90
11963;DHT22;62678;52.130;5.584;2023-01-06T01:31:30;11.40;99.90
11963;DHT22;62678;52.130;5.584;2023-01-06T01:33:57;11.30;99.90
11963;DHT22;62678;52.130;5.584;2023-01-06T01:36:25;11.40;99.90
11963;DHT22;62678;52.130;5.584;2023-01-06T01:38:54;11.30;99.90
11963;DHT22;62678;52.130;5.584;2023-01-06T01:41:23;11.40;99.90
11963;DHT22;62678;52.130;5.584;2023-01-06T01:43:51;11.30;99.90
11963;DHT22;62678;52.130;5.584;2023-01-06T01:46:21;11.30;99.90
11963;DHT22;62678;52.130;5.584;2023-01-06T01:48:50;11.30;99.90
11963;DHT22;62678;52.130;5.584;2023-01-06T01:51:20;11.30;99.90
11963;DHT22;62678;52.130;5.584;2023-01-06T01:53:52;11.30;99.90
11963;DHT22;62678;52.130;5.584;2023-01-06T01:56:23;11.30;99.90
11963;DHT22;62678;52.130;5.584;2023-01-06T01:58:54;11.40;99.90
11963;DHT22;62678;52.130;5.584;2023-01-06T02:01:22;11.50;99.90
11963;DHT22;62678;52.130;5.584;2023-01-06T02:03:50;11.40;99.90
11963;DHT22;62678;52.130;5.584;2023-01-06T02:06:19;11.40;99.90
11963;DHT22;62678;52.130;5.584;2023-01-06T02:08:51;11.40;99.90
11963;DHT22;62678;52.130;5.584;2023-01-06T02:11:19;11.40;99.90
11963;DHT22;62678;52.130;5.584;2023-01-06T02:13:51;11.30;99.90
11963;DHT22;62678;52.130;5.584;2023-01-06T02:16:22;11.30;99.90
11963;DHT22;62678;52.130;5.584;2023-01-06T02:18:56;11.30;99.90
11963;DHT22;62678;52.130;5.584;2023-01-06T02:21:36;11.30;99.90
11963;DHT22;62678;52.130;5.584;2023-01-06T02:24:36;11.30;99.90
11963;DHT22;62678;52.130;5.584;2023-01-06T02:27:38;11.30;99.90
11963;DHT22;62678;52.130;5.584;2023-01-06T02:30:37;11.30;99.90
11963;DHT22;62678;52.130;5.584;2023-01-06T02:33:16;11.30;99.90
11963;DHT22;62678;52.130;5.584;2023-01-06T02:35:53;11.30;99.90
11963;DHT22;62678;52.130;5.584;2023-01-06T02:38:31;11.30;99.90
11963;DHT22;62678;52.130;5.584;2023-01-06T02:41:09;11.30;99.90
11963;DHT22;62678;52.130;5.584;2023-01-06T02:43:45;11.30;99.90
11963;DHT22;62678;52.130;5.584;2023-01-06T02:46:25;11.20;99.90
11963;DHT22;62678;52.130;5.584;2023-01-06T02:48:59;11.20;99.90
11963;DHT22;62678;52.130;5.584;2023-01-06T02:51:43;11.30;99.90
11963;DHT22;62678;52.130;5.584;2023-01-06T02:54:16;11.20;99.90
11963;DHT22;62678;52.130;5.584;2023-01-06T02:56:49;11.30;99.90
11963;DHT22;62678;52.130;5.584;2023-01-06T02:59:21;11.20;99.90
11963;DHT22;62678;52.130;5.584;2023-01-06T03:01:50;11.30;99.90
11963;DHT22;62678;52.130;5.584;2023-01-06T03:04:23;11.20;99.90
11963;DHT22;62678;52.130;5.584;2023-01-06T03:06:54;11.10;99.90
11963;DHT22;62678;52.130;5.584;2023-01-06T03:09:30;11.10;99.90
11963;DHT22;62678;52.130;5.584;2023-01-06T03:12:00;11.10;99.90
11963;DHT22;62678;52.130;5.584;2023-01-06T03:14:31;11.20;99.90
11963;DHT22;62678;52.130;5.584;2023-01-06T03:17:00;11.20;99.90
11963;DHT22;62678;52.130;5.584;2023-01-06T03:19:28;11.20;99.90
11963;DHT22;62678;52.130;5.584;2023-01-06T03:21:56;11.20;99.90
11963;DHT22;62678;52.130;5.584;2023-01-06T03:24:24;11.20;99.90
11963;DHT22;62678;52.130;5.584;2023-01-06T03:26:52;11.20;99.90
11963;DHT22;62678;52.130;5.584;2023-01-06T03:29:20;11.20;99.90
11963;DHT22;62678;52.130;5.584;2023-01-06T03:31:54;11.10;99.90
11963;DHT22;62678;52.130;5.584;2023-01-06T03:34:38;11.10;99.90
11963;DHT22;62678;52.130;5.584;2023-01-06T03:37:13;11.10;99.90
11963;DHT22;62678;52.130;5.584;2023-01-06T03:39:55;11.10;99.90
11963;DHT22;62678;52.130;5.584;2023-01-06T03:42:29;11.20;99.90
11963;DHT22;62678;52.130;5.584;2023-01-06T03:45:29;11.10;99.90
11963;DHT22;62678;52.130;5.584;2023-01-06T03:48:04;11.20;99.90
11963;DHT22;62678;52.130;5.584;2023-01-06T03:50:37;11.20;99.90
11963;DHT22;62678;52.130;5.584;2023-01-06T03:53:15;11.20;99.90
11963;DHT22;62678;52.130;5.584;2023-01-06T03:55:46;11.20;99.90
11963;DHT22;62678;52.130;5.584;2023-01-06T03:58:17;11.20;99.90
11963;DHT22;62678;52.130;5.584;2023-01-06T04:00:46;11.20;99.90
11963;DHT22;62678;52.130;5.584;2023-01-06T04:03:13;11.20;99.90
11963;DHT22;62678;52.130;5.584;2023-01-06T04:05:42;11.10;99.90
11963;DHT22;62678;52.130;5.584;2023-01-06T04:08:09;11.10;99.90
11963;DHT22;62678;52.130;5.584;2023-01-06T04:10:36;11.10;99.90
11963;DHT22;62678;52.130;5.584;2023-01-06T04:13:03;11.20;99.90
11963;DHT22;62678;52.130;5.584;2023-01-06T04:15:28;11.20;99.90
11963;DHT22;62678;52.130;5.584;2023-01-06T04:17:55;11.20;99.90
11963;DHT22;62678;52.130;5.584;2023-01-06T04:20:25;11.20;99.90
11963;DHT22;62678;52.130;5.584;2023-01-06T04:22:54;11.20;99.90
11963;DHT22;62678;52.130;5.584;2023-01-06T04:25:21;11.20;99.90
11963;DHT22;62678;52.130;5.584;2023-01-06T04:27:49;11.20;99.90
11963;DHT22;62678;52.130;5.584;2023-01-06T04:30:16;11.20;99.90
11963;DHT22;62678;52.130;5.584;2023-01-06T04:32:43;11.20;99.90
11963;DHT22;62678;52.130;5.584;2023-01-06T04:35:10;11.20;99.90
11963;DHT22;62678;52.130;5.584;2023-01-06T04:37:37;11.20;99.90
11963;DHT22;62678;52.130;5.584;2023-01-06T04:40:06;11.20;99.90
11963;DHT22;62678;52.130;5.584;2023-01-06T04:42:34;11.20;99.90
11963;DHT22;62678;52.130;5.584;2023-01-06T04:45:14;11.20;99.90
11963;DHT22;62678;52.130;5.584;2023-01-06T04:47:41;11.20;99.90
11963;DHT22;62678;52.130;5.584;2023-01-06T04:50:08;11.20;99.90
11963;DHT22;62678;52.130;5.584;2023-01-06T04:52:35;11.20;99.90
11963;DHT22;62678;52.130;5.584;2023-01-06T04:55:02;11.20;99.90
11963;DHT22;62678;52.130;5.584;2023-01-06T04:57:30;11.20;99.90
11963;DHT22;62678;52.130;5.584;2023-01-06T04:59:57;11.20;99.90
11963;DHT22;62678;52.130;5.584;2023-01-06T05:02:24;11.20;99.90
11963;DHT22;62678;52.130;5.584;2023-01-06T05:04:51;11.10;99.90
11963;DHT22;62678;52.130;5.584;2023-01-06T05:07:17;11.00;99.90
11963;DHT22;62678;52.130;5.584;2023-01-06T05:09:44;11.00;99.90
11963;DHT22;62678;52.130;5.584;2023-01-06T05:12:11;11.00;99.90
11963;DHT22;62678;52.130;5.584;2023-01-06T05:14:39;11.00;99.90
11963;DHT22;62678;52.130;5.584;2023-01-06T05:17:06;11.00;99.90
11963;DHT22;62678;52.130;5.584;2023-01-06T05:19:33;11.10;99.90
11963;DHT22;62678;52.130;5.584;2023-01-06T05:21:59;11.10;99.90
11963;DHT22;62678;52.130;5.584;2023-01-06T05:24:26;11.10;99.90
11963;DHT22;62678;52.130;5.584;2023-01-06T05:26:53;11.20;99.90
11963;DHT22;62678;52.130;5.584;2023-01-06T05:29:20;11.20;99.90
11963;DHT22;62678;52.130;5.584;2023-01-06T05:31:48;11.20;99.90
11963;DHT22;62678;52.130;5.584;2023-01-06T05:34:15;11.30;99.90
11963;DHT22;62678;52.130;5.584;2023-01-06T05:36:42;11.30;99.90
11963;DHT22;62678;52.130;5.584;2023-01-06T05:39:08;11.30;99.90
11963;DHT22;62678;52.130;5.584;2023-01-06T05:41:35;11.20;99.90
11963;DHT22;62678;52.130;5.584;2023-01-06T05:44:02;11.20;99.90
11963;DHT22;62678;52.130;5.584;2023-01-06T05:46:29;11.30;99.90
11963;DHT22;62678;52.130;5.584;2023-01-06T05:48:59;11.30;99.90
11963;DHT22;62678;52.130;5.584;2023-01-06T05:51:26;11.30;99.90
11963;DHT22;62678;52.130;5.584;2023-01-06T05:53:53;11.20;99.90
11963;DHT22;62678;52.130;5.584;2023-01-06T05:56:22;11.20;99.90
11963;DHT22;62678;52.130;5.584;2023-01-06T05:58:50;11.10;99.90
11963;DHT22;62678;52.130;5.584;2023-01-06T06:01:20;11.20;99.90
11963;DHT22;62678;52.130;5.584;2023-01-06T06:03:47;11.20;99.90
11963;DHT22;62678;52.130;5.584;2023-01-06T06:06:16;11.20;99.90
11963;DHT22;62678;52.130;5.584;2023-01-06T06:08:43;11.20;99.90
11963;DHT22;62678;52.130;5.584;2023-01-06T06:11:12;11.20;99.90
11963;DHT22;62678;52.130;5.584;2023-01-06T06:13:45;11.10;99.90
11963;DHT22;62678;52.130;5.584;2023-01-06T06:16:14;11.20;99.90
11963;DHT22;62678;52.130;5.584;2023-01-06T06:18:41;11.20;99.90
11963;DHT22;62678;52.130;5.584;2023-01-06T06:21:09;11.10;99.90
11963;DHT22;62678;52.130;5.584;2023-01-06T06:23:38;11.10;99.90
11963;DHT22;62678;52.130;5.584;2023-01-06T06:26:05;11.10;99.90
11963;DHT22;62678;52.130;5.584;2023-01-06T06:28:32;11.00;99.90
11963;DHT22;62678;52.130;5.584;2023-01-06T06:31:03;11.00;99.90
11963;DHT22;62678;52.130;5.584;2023-01-06T06:33:31;11.10;99.90
11963;DHT22;62678;52.130;5.584;2023-01-06T06:35:58;11.10;99.90
11963;DHT22;62678;52.130;5.584;2023-01-06T06:38:25;11.10;99.90
11963;DHT22;62678;52.130;5.584;2023-01-06T06:40:54;11.10;99.90
11963;DHT22;62678;52.130;5.584;2023-01-06T06:43:21;11.10;99.90
11963;DHT22;62678;52.130;5.584;2023-01-06T06:45:48;11.10;99.90
11963;DHT22;62678;52.130;5.584;2023-01-06T06:48:15;11.10;99.90
11963;DHT22;62678;52.130;5.584;2023-01-06T06:50:42;11.10;99.90
11963;DHT22;62678;52.130;5.584;2023-01-06T06:53:09;11.10;99.90
11963;DHT22;62678;52.130;5.584;2023-01-06T06:55:36;11.10;99.90
11963;DHT22;62678;52.130;5.584;2023-01-06T06:58:04;11.10;99.90
11963;DHT22;62678;52.130;5.584;2023-01-06T07:00:31;11.00;99.90
11963;DHT22;62678;52.130;5.584;2023-01-06T07:02:57;11.00;99.90
11963;DHT22;62678;52.130;5.584;2023-01-06T07:05:24;11.00;99.90
11963;DHT22;62678;52.130;5.584;2023-01-06T07:07:51;10.90;99.90
11963;DHT22;62678;52.130;5.584;2023-01-06T07:10:18;10.90;99.90
11963;DHT22;62678;52.130;5.584;2023-01-06T07:12:45;10.90;99.90
11963;DHT22;62678;52.130;5.584;2023-01-06T07:15:13;10.90;99.90
11963;DHT22;62678;52.130;5.584;2023-01-06T07:17:40;11.00;99.90
11963;DHT22;62678;52.130;5.584;2023-01-06T07:20:08;11.00;99.90
11963;DHT22;62678;52.130;5.584;2023-01-06T07:22:36;11.00;99.90
11963;DHT22;62678;52.130;5.584;2023-01-06T07:25:05;11.00;99.90
11963;DHT22;62678;52.130;5.584;2023-01-06T07:27:32;10.90;99.90
11963;DHT22;62678;52.130;5.584;2023-01-06T07:29:59;11.00;99.90
11963;DHT22;62678;52.130;5.584;2023-01-06T07:32:27;11.00;99.90
11963;DHT22;62678;52.130;5.584;2023-01-06T07:34:54;11.00;99.90
11963;DHT22;62678;52.130;5.584;2023-01-06T07:37:20;11.00;99.90
11963;DHT22;62678;52.130;5.584;2023-01-06T07:39:47;11.00;99.90
11963;DHT22;62678;52.130;5.584;2023-01-06T07:42:14;11.00;99.90
11963;DHT22;62678;52.130;5.584;2023-01-06T07:44:41;11.10;99.90
11963;DHT22;62678;52.130;5.584;2023-01-06T07:47:08;11.10;99.90
11963;DHT22;62678;52.130;5.584;2023-01-06T07:49:36;11.10;99.90
11963;DHT22;62678;52.130;5.584;2023-01-06T07:52:03;11.10;99.90
11963;DHT22;62678;52.130;5.584;2023-01-06T07:54:30;11.10;99.90
11963;DHT22;62678;52.130;5.584;2023-01-06T07:56:56;11.20;99.90
11963;DHT22;62678;52.130;5.584;2023-01-06T07:59:23;11.10;99.90
11963;DHT22;62678;52.130;5.584;2023-01-06T08:01:50;11.20;99.90
11963;DHT22;62678;52.130;5.584;2023-01-06T08:04:17;11.20;99.90
11963;DHT22;62678;52.130;5.584;2023-01-06T08:06:45;11.10;99.90
11963;DHT22;62678;52.130;5.584;2023-01-06T08:09:12;11.10;99.90
11963;DHT22;62678;52.130;5.584;2023-01-06T08:11:39;11.00;99.90
11963;DHT22;62678;52.130;5.584;2023-01-06T08:14:05;11.10;99.90
11963;DHT22;62678;52.130;5.584;2023-01-06T08:16:32;11.10;99.90
11963;DHT22;62678;52.130;5.584;2023-01-06T08:18:59;11.10;99.90
11963;DHT22;62678;52.130;5.584;2023-01-06T08:21:26;11.10;99.90
11963;DHT22;62678;52.130;5.584;2023-01-06T08:23:54;11.10;99.90
11963;DHT22;62678;52.130;5.584;2023-01-06T08:26:21;11.10;99.90
11963;DHT22;62678;52.130;5.584;2023-01-06T08:28:48;11.10;99.90
11963;DHT22;62678;52.130;5.584;2023-01-06T08:31:17;11.00;99.90
11963;DHT22;62678;52.130;5.584;2023-01-06T08:33:45;11.00;99.90
11963;DHT22;62678;52.130;5.584;2023-01-06T08:36:13;11.00;99.90
11963;DHT22;62678;52.130;5.584;2023-01-06T08:38:42;11.00;99.90
11963;DHT22;62678;52.130;5.584;2023-01-06T08:41:11;11.00;99.90
11963;DHT22;62678;52.130;5.584;2023-01-06T08:43:39;11.00;99.90
11963;DHT22;62678;52.130;5.584;2023-01-06T08:46:09;10.90;99.90
11963;DHT22;62678;52.130;5.584;2023-01-06T08:48:38;10.80;99.90
11963;DHT22;62678;52.130;5.584;2023-01-06T08:51:07;10.80;99.90
11963;DHT22;62678;52.130;5.584;2023-01-06T08:53:34;10.80;99.90
11963;DHT22;62678;52.130;5.584;2023-01-06T08:56:01;10.80;99.90
11963;DHT22;62678;52.130;5.584;2023-01-06T08:58:29;10.80;99.90
11963;DHT22;62678;52.130;5.584;2023-01-06T09:00:56;10.70;99.90
11963;DHT22;62678;52.130;5.584;2023-01-06T09:03:23;10.70;99.90
11963;DHT22;62678;52.130;5.584;2023-01-06T09:05:54;10.70;99.90
11963;DHT22;62678;52.130;5.584;2023-01-06T09:08:21;10.70;99.90
11963;DHT22;62678;52.130;5.584;2023-01-06T09:10:48;10.70;99.90
11963;DHT22;62678;52.130;5.584;2023-01-06T09:13:16;10.70;99.90
11963;DHT22;62678;52.130;5.584;2023-01-06T09:15:44;10.70;99.90
11963;DHT22;62678;52.130;5.584;2023-01-06T09:18:13;10.70;99.90
11963;DHT22;62678;52.130;5.584;2023-01-06T09:20:40;10.70;99.90
11963;DHT22;62678;52.130;5.584;2023-01-06T09:23:07;10.70;99.90
11963;DHT22;62678;52.130;5.584;2023-01-06T09:25:33;10.70;99.90
11963;DHT22;62678;52.130;5.584;2023-01-06T09:28:00;10.70;99.90
11963;DHT22;62678;52.130;5.584;2023-01-06T09:30:27;10.70;99.90
11963;DHT22;62678;52.130;5.584;2023-01-06T09:32:56;10.70;99.90
11963;DHT22;62678;52.130;5.584;2023-01-06T09:35:22;10.70;99.90
11963;DHT22;62678;52.130;5.584;2023-01-06T09:37:49;10.80;99.90
11963;DHT22;62678;52.130;5.584;2023-01-06T09:40:18;10.70;99.90
11963;DHT22;62678;52.130;5.584;2023-01-06T09:42:58;10.80;99.90
11963;DHT22;62678;52.130;5.584;2023-01-06T09:45:36;10.80;99.90
11963;DHT22;62678;52.130;5.584;2023-01-06T09:48:07;10.80;99.90
11963;DHT22;62678;52.130;5.584;2023-01-06T09:50:40;10.80;99.90
11963;DHT22;62678;52.130;5.584;2023-01-06T09:53:12;10.80;99.90
11963;DHT22;62678;52.130;5.584;2023-01-06T09:55:42;10.80;99.90
11963;DHT22;62678;52.130;5.584;2023-01-06T09:58:12;10.90;99.90
11963;DHT22;62678;52.130;5.584;2023-01-06T10:00:42;10.80;99.90
11963;DHT22;62678;52.130;5.584;2023-01-06T10:03:14;10.80;99.90
11963;DHT22;62678;52.130;5.584;2023-01-06T10:05:51;10.90;99.90
11963;DHT22;62678;52.130;5.584;2023-01-06T10:08:29;10.80;99.90
11963;DHT22;62678;52.130;5.584;2023-01-06T10:11:09;10.90;99.90
11963;DHT22;62678;52.130;5.584;2023-01-06T10:13:46;10.90;99.90
11963;DHT22;62678;52.130;5.584;2023-01-06T10:16:25;10.80;99.90
11963;DHT22;62678;52.130;5.584;2023-01-06T10:19:02;10.90;99.90
11963;DHT22;62678;52.130;5.584;2023-01-06T10:21:37;10.90;99.90
11963;DHT22;62678;52.130;5.584;2023-01-06T10:24:24;10.90;99.90
11963;DHT22;62678;52.130;5.584;2023-01-06T10:26:56;11.00;99.90
11963;DHT22;62678;52.130;5.584;2023-01-06T10:29:28;11.00;99.90
11963;DHT22;62678;52.130;5.584;2023-01-06T10:31:56;11.10;99.90
11963;DHT22;62678;52.130;5.584;2023-01-06T10:34:27;11.20;99.90
11963;DHT22;62678;52.130;5.584;2023-01-06T10:37:00;11.30;99.90
11963;DHT22;62678;52.130;5.584;2023-01-06T10:39:27;11.30;99.90
11963;DHT22;62678;52.130;5.584;2023-01-06T10:42:01;11.30;99.90
11963;DHT22;62678;52.130;5.584;2023-01-06T10:44:48;11.20;99.90
11963;DHT22;62678;52.130;5.584;2023-01-06T10:47:22;11.20;99.90
11963;DHT22;62678;52.130;5.584;2023-01-06T10:49:51;11.00;99.90
11963;DHT22;62678;52.130;5.584;2023-01-06T10:52:19;10.90;99.90
11963;DHT22;62678;52.130;5.584;2023-01-06T10:54:49;10.80;99.90
11963;DHT22;62678;52.130;5.584;2023-01-06T10:57:21;10.80;99.90
11963;DHT22;62678;52.130;5.584;2023-01-06T11:00:09;10.80;99.90
11963;DHT22;62678;52.130;5.584;2023-01-06T11:02:41;11.00;99.90
11963;DHT22;62678;52.130;5.584;2023-01-06T11:05:14;11.00;99.90
11963;DHT22;62678;52.130;5.584;2023-01-06T11:07:47;11.00;99.90
11963;DHT22;62678;52.130;5.584;2023-01-06T11:10:24;11.00;99.90
11963;DHT22;62678;52.130;5.584;2023-01-06T11:12:52;11.00;99.90
11963;DHT22;62678;52.130;5.584;2023-01-06T11:15:21;11.10;99.90
11963;DHT22;62678;52.130;5.584;2023-01-06T11:17:48;11.10;99.90
11963;DHT22;62678;52.130;5.584;2023-01-06T11:20:31;11.10;99.90
11963;DHT22;62678;52.130;5.584;2023-01-06T11:23:17;11.20;99.90
11963;DHT22;62678;52.130;5.584;2023-01-06T11:25:59;11.20;99.90
11963;DHT22;62678;52.130;5.584;2023-01-06T11:28:26;11.10;99.90
11963;DHT22;62678;52.130;5.584;2023-01-06T11:30:58;11.00;99.90
11963;DHT22;62678;52.130;5.584;2023-01-06T11:33:27;11.00;99.90
11963;DHT22;62678;52.130;5.584;2023-01-06T11:35:56;11.10;99.90
11963;DHT22;62678;52.130;5.584;2023-01-06T11:38:29;11.10;99.90
11963;DHT22;62678;52.130;5.584;2023-01-06T11:40:56;11.10;99.90
11963;DHT22;62678;52.130;5.584;2023-01-06T11:43:27;11.20;99.90
11963;DHT22;62678;52.130;5.584;2023-01-06T11:45:57;11.20;99.90
11963;DHT22;62678;52.130;5.584;2023-01-06T11:48:26;11.20;99.90
11963;DHT22;62678;52.130;5.584;2023-01-06T11:50:57;11.30;99.90
11963;DHT22;62678;52.130;5.584;2023-01-06T11:53:25;11.30;99.90
11963;DHT22;62678;52.130;5.584;2023-01-06T11:55:58;11.40;99.90
11963;DHT22;62678;52.130;5.584;2023-01-06T11:58:35;11.50;99.90
11963;DHT22;62678;52.130;5.584;2023-01-06T12:01:08;11.50;99.90
11963;DHT22;62678;52.130;5.584;2023-01-06T12:03:37;11.60;99.90
11963;DHT22;62678;52.130;5.584;2023-01-06T12:06:17;11.40;99.90
11963;DHT22;62678;52.130;5.584;2023-01-06T12:08:50;11.40;99.90
11963;DHT22;62678;52.130;5.584;2023-01-06T12:11:25;11.30;99.90
11963;DHT22;62678;52.130;5.584;2023-01-06T12:13:53;11.40;99.90
11963;DHT22;62678;52.130;5.584;2023-01-06T12:16:22;11.40;99.90
11963;DHT22;62678;52.130;5.584;2023-01-06T12:18:56;11.40;99.90
11963;DHT22;62678;52.130;5.584;2023-01-06T12:21:28;11.50;99.90
11963;DHT22;62678;52.130;5.584;2023-01-06T12:23:58;11.60;99.90
11963;DHT22;62678;52.130;5.584;2023-01-06T12:26:27;11.70;99.90
11963;DHT22;62678;52.130;5.584;2023-01-06T12:28:58;11.60;99.90
11963;DHT22;62678;52.130;5.584;2023-01-06T12:31:29;11.50;99.90
11963;DHT22;62678;52.130;5.584;2023-01-06T12:34:02;11.50;99.90
11963;DHT22;62678;52.130;5.584;2023-01-06T12:36:38;11.60;99.90
11963;DHT22;62678;52.130;5.584;2023-01-06T12:39:12;11.60;99.90
11963;DHT22;62678;52.130;5.584;2023-01-06T12:41:41;11.70;99.90
11963;DHT22;62678;52.130;5.584;2023-01-06T12:44:18;11.90;99.90
11963;DHT22;62678;52.130;5.584;2023-01-06T12:46:53;11.90;99.90
11963;DHT22;62678;52.130;5.584;2023-01-06T12:49:26;11.90;99.90
11963;DHT22;62678;52.130;5.584;2023-01-06T12:52:02;11.90;99.90
11963;DHT22;62678;52.130;5.584;2023-01-06T12:54:31;11.70;99.90
11963;DHT22;62678;52.130;5.584;2023-01-06T12:57:15;11.80;99.90
11963;DHT22;62678;52.130;5.584;2023-01-06T13:00:00;11.80;99.90
11963;DHT22;62678;52.130;5.584;2023-01-06T13:02:46;11.80;99.90
11963;DHT22;62678;52.130;5.584;2023-01-06T13:08:24;11.80;99.90
11963;DHT22;62678;52.130;5.584;2023-01-06T13:10:57;12.00;99.90
11963;DHT22;62678;52.130;5.584;2023-01-06T13:13:39;11.80;99.90
11963;DHT22;62678;52.130;5.584;2023-01-06T13:16:15;11.90;99.90
11963;DHT22;62678;52.130;5.584;2023-01-06T13:18:51;12.00;99.90
11963;DHT22;62678;52.130;5.584;2023-01-06T13:21:21;11.90;99.90
11963;DHT22;62678;52.130;5.584;2023-01-06T13:24:07;11.80;99.90
11963;DHT22;62678;52.130;5.584;2023-01-06T13:26:56;11.90;99.90
11963;DHT22;62678;52.130;5.584;2023-01-06T13:29:38;12.00;99.90
11963;DHT22;62678;52.130;5.584;2023-01-06T13:32:24;11.90;99.90
11963;DHT22;62678;52.130;5.584;2023-01-06T13:35:10;11.90;99.90
11963;DHT22;62678;52.130;5.584;2023-01-06T13:37:50;12.10;99.90
11963;DHT22;62678;52.130;5.584;2023-01-06T13:40:23;12.00;99.90
11963;DHT22;62678;52.130;5.584;2023-01-06T13:42:58;12.00;99.90
11963;DHT22;62678;52.130;5.584;2023-01-06T13:45:30;11.90;99.90
11963;DHT22;62678;52.130;5.584;2023-01-06T13:47:59;11.90;99.90
11963;DHT22;62678;52.130;5.584;2023-01-06T13:50:32;11.80;99.90
11963;DHT22;62678;52.130;5.584;2023-01-06T13:52:59;11.80;99.90
11963;DHT22;62678;52.130;5.584;2023-01-06T13:55:29;11.80;99.90
11963;DHT22;62678;52.130;5.584;2023-01-06T13:58:34;11.90;99.90
11963;DHT22;62678;52.130;5.584;2023-01-06T14:01:07;11.90;99.90
11963;DHT22;62678;52.130;5.584;2023-01-06T14:03:40;11.80;99.90
11963;DHT22;62678;52.130;5.584;2023-01-06T14:06:09;11.80;99.90
11963;DHT22;62678;52.130;5.584;2023-01-06T14:08:39;11.80;99.90
11963;DHT22;62678;52.130;5.584;2023-01-06T14:11:25;11.80;99.90
11963;DHT22;62678;52.130;5.584;2023-01-06T14:13:54;11.80;99.90
11963;DHT22;62678;52.130;5.584;2023-01-06T14:16:38;11.70;99.90
11963;DHT22;62678;52.130;5.584;2023-01-06T14:19:07;11.60;99.90
11963;DHT22;62678;52.130;5.584;2023-01-06T14:21:35;11.50;99.90
11963;DHT22;62678;52.130;5.584;2023-01-06T14:24:04;11.50;99.90
11963;DHT22;62678;52.130;5.584;2023-01-06T14:27:00;11.40;99.90
11963;DHT22;62678;52.130;5.584;2023-01-06T14:30:00;11.40;99.90
11963;DHT22;62678;52.130;5.584;2023-01-06T14:32:58;11.30;99.90
11963;DHT22;62678;52.130;5.584;2023-01-06T14:35:28;11.30;99.90
11963;DHT22;62678;52.130;5.584;2023-01-06T14:37:59;11.30;99.90
11963;DHT22;62678;52.130;5.584;2023-01-06T14:40:28;11.20;99.90
11963;DHT22;62678;52.130;5.584;2023-01-06T14:43:00;11.30;99.90
11963;DHT22;62678;52.130;5.584;2023-01-06T14:45:32;11.20;99.90
11963;DHT22;62678;52.130;5.584;2023-01-06T14:48:04;11.10;99.90
11963;DHT22;62678;52.130;5.584;2023-01-06T14:50:35;11.10;99.90
11963;DHT22;62678;52.130;5.584;2023-01-06T14:53:07;11.10;99.90
11963;DHT22;62678;52.130;5.584;2023-01-06T14:55:37;11.10;99.90
11963;DHT22;62678;52.130;5.584;2023-01-06T14:58:26;11.10;99.90
11963;DHT22;62678;52.130;5.584;2023-01-06T15:00:53;11.10;99.90
11963;DHT22;62678;52.130;5.584;2023-01-06T15:03:21;11.10;99.90
11963;DHT22;62678;52.130;5.584;2023-01-06T15:05:49;11.00;99.90
11963;DHT22;62678;52.130;5.584;2023-01-06T15:08:17;11.00;99.90
11963;DHT22;62678;52.130;5.584;2023-01-06T15:10:46;10.90;99.90
11963;DHT22;62678;52.130;5.584;2023-01-06T15:13:23;10.90;99.90
11963;DHT22;62678;52.130;5.584;2023-01-06T15:15:57;10.90;99.90
11963;DHT22;62678;52.130;5.584;2023-01-06T15:18:25;10.90;99.90
11963;DHT22;62678;52.130;5.584;2023-01-06T15:20:53;10.90;99.90
11963;DHT22;62678;52.130;5.584;2023-01-06T15:23:20;10.80;99.90
11963;DHT22;62678;52.130;5.584;2023-01-06T15:25:49;10.80;99.90
11963;DHT22;62678;52.130;5.584;2023-01-06T15:28:26;10.80;99.90
11963;DHT22;62678;52.130;5.584;2023-01-06T15:30:53;10.80;99.90
11963;DHT22;62678;52.130;5.584;2023-01-06T15:33:22;10.70;99.90
11963;DHT22;62678;52.130;5.584;2023-01-06T15:35:50;10.60;99.90
11963;DHT22;62678;52.130;5.584;2023-01-06T15:38:24;10.70;99.90
11963;DHT22;62678;52.130;5.584;2023-01-06T15:40:51;10.60;99.90
11963;DHT22;62678;52.130;5.584;2023-01-06T15:43:19;10.50;99.90
11963;DHT22;62678;52.130;5.584;2023-01-06T15:45:57;10.50;99.90
11963;DHT22;62678;52.130;5.584;2023-01-06T15:48:27;10.50;99.90
11963;DHT22;62678;52.130;5.584;2023-01-06T15:50:55;10.40;99.90
11963;DHT22;62678;52.130;5.584;2023-01-06T15:53:24;10.40;99.90
11963;DHT22;62678;52.130;5.584;2023-01-06T15:55:56;10.30;99.90
11963;DHT22;62678;52.130;5.584;2023-01-06T15:58:25;10.20;99.90